Time;durP1;ratioP1;P1;durP2;ratioP2;P2;SDS_P1;SDS_P2;PMS_P1;PMS_P2;Temp;Humidity;BMP_temperature;BMP_pressure;BME280_temperature;BME280_humidity;BME280_pressure;Samples;Min_cycle;Max_cycle;Signal;HPM_P1;HPM_P2
2024/01/11 00:02:02;;;;;;;16.27;7.50;;;;;;;;;;10270956;28;20237;-65
2024/01/11 00:07:03;;;;;;;9.17;5.80;;;;;;;;;;10281304;28;20196;-66
2024/01/11 00:12:05;;;;;;;15.87;6.97;;;;;;;;;;10265796;28;20202;-66
2024/01/11 00:17:06;;;;;;;15.73;7.60;;;;;;;;;;10277436;28;20648;-66
2024/01/11 00:22:07;;;;;;;17.57;6.87;;;;;;;;;;10269304;28;20213;-66
2024/01/11 00:27:08;;;;;;;17.63;7.20;;;;;;;;;;10260298;28;20269;-66
2024/01/11 00:32:10;;;;;;;10.27;5.93;;;;;;;;;;10258925;28;20218;-66
2024/01/11 00:37:10;;;;;;;16.47;5.83;;;;;;;;;;10277081;28;20189;-64
2024/01/11 00:42:11;;;;;;;30.93;6.80;;;;;;;;;;10263450;28;20735;-66
2024/01/11 00:47:13;;;;;;;18.37;7.23;;;;;;;;;;10271751;28;20418;-65
2024/01/11 00:52:13;;;;;;;10.47;6.77;;;;;;;;;;10279616;28;20300;-66
2024/01/11 00:57:14;;;;;;;12.20;5.60;;;;;;;;;;10267459;28;20668;-65
2024/01/11 01:02:15;;;;;;;13.60;6.23;;;;;;;;;;10273040;28;20376;-66
2024/01/11 01:07:16;;;;;;;14.27;5.57;;;;;;;;;;10266031;28;20275;-66
2024/01/11 01:12:17;;;;;;;9.07;5.20;;;;;;;;;;10264392;28;20210;-66
2024/01/11 01:17:18;;;;;;;10.13;5.17;;;;;;;;;;10272656;28;20189;-66
2024/01/11 01:22:19;;;;;;;21.07;5.27;;;;;;;;;;10266457;28;20225;-66
2024/01/11 01:27:20;;;;;;;8.77;5.37;;;;;;;;;;10264377;28;20240;-66
2024/01/11 01:32:21;;;;;;;9.33;5.20;;;;;;;;;;10260554;28;20284;-66
2024/01/11 01:37:23;;;;;;;13.03;5.23;;;;;;;;;;10269549;28;20194;-66
2024/01/11 01:42:24;;;;;;;10.10;5.33;;;;;;;;;;10268484;28;20214;-66
2024/01/11 01:47:26;;;;;;;9.80;3.57;;;;;;;;;;10265816;28;20563;-66
2024/01/11 01:52:27;;;;;;;13.83;5.57;;;;;;;;;;10272407;28;20602;-66
2024/01/11 01:57:28;;;;;;;9.37;4.33;;;;;;;;;;10271133;28;20198;-65
2024/01/11 02:02:30;;;;;;;11.90;6.00;;;;;;;;;;10268230;28;20591;-65
2024/01/11 02:07:32;;;;;;;8.73;4.50;;;;;;;;;;10275897;28;20198;-65
2024/01/11 02:12:33;;;;;;;11.30;5.67;;;;;;;;;;10276779;28;20590;-66
2024/01/11 02:17:34;;;;;;;10.73;5.23;;;;;;;;;;10279865;28;20193;-67
2024/01/11 02:22:36;;;;;;;6.63;4.50;;;;;;;;;;10276251;28;20225;-66
2024/01/11 02:27:47;;;;;;;15.57;4.77;;;;;;;;;;10263997;28;20182;-66
2024/01/11 02:32:49;;;;;;;13.93;4.93;;;;;;;;;;10280929;28;20226;-66
2024/01/11 02:37:50;;;;;;;12.33;5.20;;;;;;;;;;10279057;28;20644;-66
2024/01/11 02:42:51;;;;;;;14.97;4.50;;;;;;;;;;10265948;28;20216;-66
2024/01/11 02:47:52;;;;;;;16.33;4.87;;;;;;;;;;10270203;28;20631;-66
2024/01/11 02:52:53;;;;;;;7.40;4.70;;;;;;;;;;10276219;28;20382;-66
2024/01/11 02:57:54;;;;;;;9.53;4.43;;;;;;;;;;10288495;28;20181;-67
2024/01/11 03:02:55;;;;;;;13.37;4.53;;;;;;;;;;10282299;28;20781;-66
2024/01/11 03:07:56;;;;;;;14.03;5.43;;;;;;;;;;10279108;28;20266;-67
2024/01/11 03:12:58;;;;;;;9.97;4.60;;;;;;;;;;10276473;28;20600;-66
2024/01/11 03:17:59;;;;;;;11.10;4.30;;;;;;;;;;10277783;28;20193;-66
2024/01/11 03:23:00;;;;;;;10.00;5.80;;;;;;;;;;10264488;28;20756;-67
2024/01/11 03:28:01;;;;;;;15.43;5.80;;;;;;;;;;10265371;28;20800;-66
2024/01/11 03:33:02;;;;;;;14.43;5.27;;;;;;;;;;10263522;28;20667;-67
2024/01/11 03:38:03;;;;;;;7.43;5.20;;;;;;;;;;10260076;28;20713;-66
2024/01/11 03:43:04;;;;;;;8.73;4.80;;;;;;;;;;10265000;28;20949;-66
2024/01/11 03:48:05;;;;;;;11.90;4.60;;;;;;;;;;10263531;28;20194;-66
2024/01/11 03:53:06;;;;;;;9.13;4.77;;;;;;;;;;10274029;28;20280;-67
2024/01/11 03:58:07;;;;;;;11.73;4.73;;;;;;;;;;10261784;28;20232;-66
2024/01/11 04:03:08;;;;;;;9.77;5.57;;;;;;;;;;10260888;28;20253;-66
2024/01/11 04:08:09;;;;;;;10.87;4.00;;;;;;;;;;10271088;28;20249;-66
2024/01/11 04:13:10;;;;;;;7.33;4.90;;;;;;;;;;10270609;28;20209;-67
2024/01/11 04:18:11;;;;;;;9.33;4.40;;;;;;;;;;10266875;28;20652;-66
2024/01/11 04:23:12;;;;;;;5.27;3.93;;;;;;;;;;10276469;28;20229;-66
2024/01/11 04:28:13;;;;;;;12.80;6.40;;;;;;;;;;10268423;28;20710;-66
2024/01/11 04:33:14;;;;;;;11.10;5.37;;;;;;;;;;10260572;28;20219;-66
2024/01/11 04:38:15;;;;;;;10.63;4.43;;;;;;;;;;10263555;28;20211;-66
2024/01/11 04:43:16;;;;;;;6.03;3.83;;;;;;;;;;10268463;28;20217;-65
2024/01/11 04:48:18;;;;;;;13.07;4.33;;;;;;;;;;10272945;28;20194;-67
2024/01/11 04:53:19;;;;;;;9.87;4.20;;;;;;;;;;10280559;28;20569;-67
2024/01/11 04:58:20;;;;;;;6.93;4.30;;;;;;;;;;10285777;28;20719;-67
2024/01/11 05:03:21;;;;;;;7.77;3.30;;;;;;;;;;10266477;28;20225;-66
2024/01/11 05:08:22;;;;;;;6.10;4.10;;;;;;;;;;10266898;28;20244;-67
2024/01/11 05:13:23;;;;;;;4.43;3.63;;;;;;;;;;10267931;28;20739;-67
2024/01/11 05:18:24;;;;;;;10.20;5.17;;;;;;;;;;10272156;28;20196;-67
2024/01/11 05:23:25;;;;;;;10.90;5.03;;;;;;;;;;10264197;28;20209;-67
2024/01/11 05:28:26;;;;;;;7.37;3.53;;;;;;;;;;10264429;28;20525;-67
2024/01/11 05:33:27;;;;;;;11.83;4.67;;;;;;;;;;10276318;28;20324;-66
2024/01/11 05:38:28;;;;;;;6.87;3.93;;;;;;;;;;10268597;28;20637;-66
2024/01/11 05:43:29;;;;;;;7.77;5.23;;;;;;;;;;10255848;28;20713;-67
2024/01/11 05:48:30;;;;;;;6.07;3.97;;;;;;;;;;10259563;28;20227;-66
2024/01/11 05:53:35;;;;;;;18.73;5.93;;;;;;;;;;10272550;28;20236;-67
2024/01/11 05:58:39;;;;;;;7.90;4.63;;;;;;;;;;10257678;28;20189;-66
2024/01/11 06:03:40;;;;;;;17.70;5.07;;;;;;;;;;10256136;28;20221;-67
2024/01/11 06:08:43;;;;;;;11.27;5.23;;;;;;;;;;10280746;28;20186;-67
2024/01/11 06:13:44;;;;;;;9.83;5.13;;;;;;;;;;10271230;28;20755;-68
2024/01/11 06:18:45;;;;;;;7.57;4.63;;;;;;;;;;10256052;28;20572;-66
2024/01/11 06:23:46;;;;;;;11.30;5.30;;;;;;;;;;10258546;28;20212;-66
2024/01/11 06:28:47;;;;;;;9.17;6.27;;;;;;;;;;10251679;28;20216;-66
2024/01/11 06:33:48;;;;;;;15.10;6.37;;;;;;;;;;10256480;28;20221;-65
2024/01/11 06:38:49;;;;;;;12.60;6.40;;;;;;;;;;10262222;28;20453;-66
2024/01/11 06:43:50;;;;;;;10.80;5.53;;;;;;;;;;10254411;28;20244;-67
2024/01/11 06:48:51;;;;;;;13.80;5.77;;;;;;;;;;10276406;28;20186;-66
2024/01/11 06:53:52;;;;;;;20.00;6.13;;;;;;;;;;10259436;28;20304;-66
2024/01/11 06:58:53;;;;;;;13.43;5.97;;;;;;;;;;10257079;28;20268;-66
2024/01/11 07:03:54;;;;;;;16.13;6.40;;;;;;;;;;10270592;28;20221;-66
2024/01/11 07:08:55;;;;;;;7.20;5.70;;;;;;;;;;10275133;28;20237;-66
2024/01/11 07:13:56;;;;;;;12.73;5.40;;;;;;;;;;10250384;28;20707;-66
2024/01/11 07:18:57;;;;;;;15.50;7.33;;;;;;;;;;10292344;28;20201;-66
2024/01/11 07:24:01;;;;;;;13.87;6.80;;;;;;;;;;10281150;28;20208;-67
2024/01/11 07:29:02;;;;;;;8.60;5.70;;;;;;;;;;10259682;28;20221;-66
2024/01/11 07:34:03;;;;;;;14.27;6.70;;;;;;;;;;10270914;28;20213;-67
2024/01/11 07:39:04;;;;;;;11.57;5.73;;;;;;;;;;10275350;28;20193;-67
2024/01/11 07:44:05;;;;;;;15.07;6.67;;;;;;;;;;10267960;28;20839;-66
2024/01/11 07:49:10;;;;;;;10.50;6.20;;;;;;;;;;10224857;28;20863;-67
2024/01/11 07:54:11;;;;;;;8.93;5.57;;;;;;;;;;10248225;28;21482;-67
2024/01/11 07:59:14;;;;;;;17.00;7.17;;;;;;;;;;10264650;28;20255;-67
2024/01/11 08:04:15;;;;;;;32.43;7.87;;;;;;;;;;10251075;28;20229;-67
2024/01/11 08:09:16;;;;;;;15.40;7.77;;;;;;;;;;10266552;28;20679;-67
2024/01/11 08:14:17;;;;;;;11.80;7.20;;;;;;;;;;10250070;28;20279;-67
2024/01/11 08:19:18;;;;;;;19.43;7.47;;;;;;;;;;10272804;28;20194;-67
2024/01/11 08:24:19;;;;;;;14.90;7.23;;;;;;;;;;10252489;28;20223;-67
2024/01/11 08:29:20;;;;;;;21.33;10.27;;;;;;;;;;10273935;28;20288;-66
2024/01/11 08:34:21;;;;;;;18.37;8.37;;;;;;;;;;10272092;28;20309;-66
2024/01/11 08:39:22;;;;;;;21.60;9.17;;;;;;;;;;10277790;28;20182;-66
2024/01/11 08:44:23;;;;;;;24.23;8.47;;;;;;;;;;10272971;28;20764;-66
2024/01/11 08:49:25;;;;;;;28.33;8.67;;;;;;;;;;10257702;28;20189;-67
2024/01/11 08:54:26;;;;;;;15.67;7.17;;;;;;;;;;10261463;28;20672;-67
2024/01/11 08:59:27;;;;;;;20.27;8.17;;;;;;;;;;10270803;28;20190;-66
2024/01/11 09:04:29;;;;;;;15.87;7.67;;;;;;;;;;10264364;28;20718;-66
2024/01/11 09:09:30;;;;;;;19.53;8.73;;;;;;;;;;10263578;28;20222;-67
2024/01/11 09:14:31;;;;;;;15.03;7.60;;;;;;;;;;10272818;28;20217;-67
2024/01/11 09:19:39;;;;;;;14.30;8.57;;;;;;;;;;10260673;28;20629;-67
2024/01/11 09:24:40;;;;;;;14.90;6.80;;;;;;;;;;10269831;28;20208;-66
2024/01/11 09:29:45;;;;;;;16.83;8.13;;;;;;;;;;10257132;28;20241;-66
2024/01/11 09:34:46;;;;;;;17.27;8.50;;;;;;;;;;10268285;28;20658;-66
2024/01/11 09:39:47;;;;;;;15.30;6.70;;;;;;;;;;10261524;28;20178;-67
2024/01/11 09:44:48;;;;;;;17.13;7.50;;;;;;;;;;10277787;28;20202;-67
2024/01/11 09:49:50;;;;;;;14.37;6.17;;;;;;;;;;10246096;28;20189;-68
2024/01/11 09:54:51;;;;;;;15.67;6.13;;;;;;;;;;10270748;28;20212;-67
2024/01/11 09:59:55;;;;;;;14.50;5.60;;;;;;;;;;10255430;28;20220;-68
2024/01/11 10:04:56;;;;;;;12.70;6.17;;;;;;;;;;10261131;28;20249;-68
2024/01/11 10:09:58;;;;;;;13.43;6.33;;;;;;;;;;10265963;28;20185;-69
2024/01/11 10:15:06;;;;;;;17.07;6.10;;;;;;;;;;10261841;28;20205;-68
2024/01/11 10:20:10;;;;;;;14.50;5.87;;;;;;;;;;10260600;28;20213;-68
2024/01/11 10:25:12;;;;;;;9.97;4.60;;;;;;;;;;10256019;28;20190;-68
2024/01/11 10:30:16;;;;;;;11.33;6.20;;;;;;;;;;10264890;28;20252;-68
2024/01/11 10:35:18;;;;;;;11.97;5.27;;;;;;;;;;10275406;28;20224;-69
2024/01/11 10:40:23;;;;;;;9.73;5.55;;;;;;;;;;10280854;28;20705;-68
2024/01/11 10:45:25;;;;;;;10.63;5.50;;;;;;;;;;10283508;28;20566;-69
2024/01/11 10:50:27;;;;;;;10.95;5.38;;;;;;;;;;10266205;28;20221;-68
2024/01/11 10:55:29;;;;;;;7.13;5.32;;;;;;;;;;10258190;28;20181;-68
2024/01/11 11:00:31;;;;;;;14.20;6.55;;;;;;;;;;10254672;28;20671;-68
2024/01/11 11:05:35;;;;;;;9.63;5.65;;;;;;;;;;10262395;28;20269;-68
2024/01/11 11:10:36;;;;;;;12.03;5.77;;;;;;;;;;10250506;28;20721;-69
2024/01/11 11:15:38;;;;;;;9.90;5.05;;;;;;;;;;10261697;28;20209;-70
2024/01/11 11:20:42;;;;;;;9.52;5.50;;;;;;;;;;10268191;28;20249;-69
2024/01/11 11:25:45;;;;;;;11.35;4.78;;;;;;;;;;10279277;28;20182;-69
2024/01/11 11:30:48;;;;;;;8.43;4.60;;;;;;;;;;10260808;28;20226;-68
2024/01/11 11:35:53;;;;;;;8.50;4.85;;;;;;;;;;10273781;28;20201;-69
2024/01/11 11:40:54;;;;;;;11.32;4.82;;;;;;;;;;10282171;28;20217;-68
2024/01/11 11:45:56;;;;;;;8.67;5.10;;;;;;;;;;10266270;28;20241;-68
2024/01/11 11:51:06;;;;;;;8.88;4.13;;;;;;;;;;10259498;28;20598;-68
2024/01/11 11:56:09;;;;;;;11.32;5.15;;;;;;;;;;10261042;28;20197;-68
2024/01/11 12:01:10;;;;;;;8.87;4.90;;;;;;;;;;10266595;28;20696;-68
2024/01/11 12:06:11;;;;;;;9.20;5.30;;;;;;;;;;10274744;28;20201;-68
2024/01/11 12:11:17;;;;;;;7.23;4.53;;;;;;;;;;10260917;28;20209;-68
2024/01/11 12:16:19;;;;;;;8.73;4.53;;;;;;;;;;10260883;28;20491;-68
2024/01/11 12:21:20;;;;;;;9.00;5.57;;;;;;;;;;10275405;28;20224;-68
2024/01/11 12:26:21;;;;;;;9.07;3.90;;;;;;;;;;10279177;28;20237;-68
2024/01/11 12:31:22;;;;;;;10.97;5.27;;;;;;;;;;10264359;28;20268;-69
2024/01/11 12:36:25;;;;;;;9.43;5.23;;;;;;;;;;10268051;28;20462;-68
2024/01/11 12:41:26;;;;;;;10.07;5.43;;;;;;;;;;10282503;28;20671;-68
2024/01/11 12:46:27;;;;;;;22.90;6.18;;;;;;;;;;10281020;28;20268;-68
2024/01/11 12:51:28;;;;;;;14.38;5.47;;;;;;;;;;10255436;28;20214;-68
2024/01/11 12:56:29;;;;;;;15.77;6.10;;;;;;;;;;10264196;28;20221;-68
2024/01/11 13:01:30;;;;;;;20.27;6.53;;;;;;;;;;10259386;28;20220;-68
2024/01/11 13:06:34;;;;;;;14.23;5.57;;;;;;;;;;10262731;28;20516;-70
2024/01/11 13:11:35;;;;;;;20.25;6.18;;;;;;;;;;10262319;28;20210;-68
2024/01/11 13:16:36;;;;;;;14.50;6.78;;;;;;;;;;10266159;28;21042;-68
2024/01/11 13:21:37;;;;;;;17.93;6.93;;;;;;;;;;10257691;28;20225;-69
2024/01/11 13:45:47;;;;;;;23.57;6.60;;;;;;;;;;10216640;28;20205;-70
2024/01/11 13:50:48;;;;;;;26.30;6.60;;;;;;;;;;10273638;28;20267;-69
2024/01/11 13:55:49;;;;;;;11.40;5.10;;;;;;;;;;10265648;28;20199;-69
2024/01/11 14:00:50;;;;;;;12.98;5.53;;;;;;;;;;10302549;28;20714;-69
2024/01/11 14:05:51;;;;;;;11.43;4.50;;;;;;;;;;10255564;28;20212;-69
2024/01/11 14:10:54;;;;;;;11.13;4.70;;;;;;;;;;10295105;28;20242;-69
2024/01/11 14:15:55;;;;;;;13.40;4.37;;;;;;;;;;10295442;28;20272;-69
2024/01/11 14:20:56;;;;;;;12.43;4.18;;;;;;;;;;10285717;28;20212;-69
2024/01/11 14:25:57;;;;;;;8.30;4.57;;;;;;;;;;10308937;28;20730;-69
2024/01/11 14:30:58;;;;;;;10.85;4.38;;;;;;;;;;10298706;28;20264;-69
2024/01/11 14:35:59;;;;;;;7.30;3.25;;;;;;;;;;10259987;28;20308;-69
2024/01/11 14:41:00;;;;;;;9.38;4.18;;;;;;;;;;10288057;28;20216;-69
2024/01/11 14:46:01;;;;;;;7.60;3.67;;;;;;;;;;10291926;28;20544;-69
2024/01/11 14:51:04;;;;;;;5.10;3.13;;;;;;;;;;10285383;28;20294;-70
2024/01/11 14:56:05;;;;;;;9.05;4.35;;;;;;;;;;10293979;28;20477;-69
2024/01/11 15:01:06;;;;;;;10.95;4.32;;;;;;;;;;10293108;28;20228;-69
2024/01/11 15:06:07;;;;;;;6.88;3.83;;;;;;;;;;10298521;28;20624;-69
2024/01/11 15:11:09;;;;;;;6.07;3.45;;;;;;;;;;10308006;28;20212;-69
2024/01/11 15:16:10;;;;;;;14.02;3.90;;;;;;;;;;10301223;28;20185;-70
2024/01/11 15:21:11;;;;;;;6.60;3.05;;;;;;;;;;10285938;28;20275;-69
2024/01/11 15:26:12;;;;;;;6.63;3.05;;;;;;;;;;10300231;28;20244;-70
2024/01/11 15:31:14;;;;;;;5.45;2.55;;;;;;;;;;10301891;28;20217;-70
2024/01/11 15:36:15;;;;;;;7.78;3.03;;;;;;;;;;10278089;28;20517;-69
2024/01/11 15:41:16;;;;;;;6.30;3.55;;;;;;;;;;10285142;28;20220;-69
2024/01/11 15:46:17;;;;;;;9.00;4.25;;;;;;;;;;10311289;28;20189;-69
2024/01/11 15:51:18;;;;;;;6.93;3.70;;;;;;;;;;10303104;28;20212;-70
2024/01/11 15:56:19;;;;;;;7.85;3.33;;;;;;;;;;10304718;28;20231;-70
2024/01/11 16:01:20;;;;;;;7.55;3.88;;;;;;;;;;10287120;28;20385;-70
2024/01/11 16:06:21;;;;;;;16.35;4.30;;;;;;;;;;10270259;28;20197;-69
2024/01/11 16:11:22;;;;;;;10.73;4.43;;;;;;;;;;10297327;28;20619;-70
2024/01/11 16:16:23;;;;;;;8.88;4.40;;;;;;;;;;10295084;28;20196;-70
2024/01/11 16:21:28;;;;;;;8.77;4.38;;;;;;;;;;10303971;28;20217;-70
2024/01/11 16:26:29;;;;;;;8.75;5.18;;;;;;;;;;10297880;28;20637;-69
2024/01/11 16:31:30;;;;;;;10.15;4.55;;;;;;;;;;10308246;28;20252;-70
2024/01/11 16:36:31;;;;;;;5.32;4.78;;;;;;;;;;10301346;28;20181;-70
2024/01/11 16:41:32;;;;;;;9.93;4.50;;;;;;;;;;10299427;28;20236;-69
2024/01/11 16:46:33;;;;;;;9.88;5.82;;;;;;;;;;10275138;28;20212;-69
2024/01/11 16:51:34;;;;;;;12.20;5.60;;;;;;;;;;10307941;28;20239;-70
2024/01/11 16:56:35;;;;;;;9.68;5.45;;;;;;;;;;10296305;28;20203;-69
2024/01/11 17:01:36;;;;;;;10.07;6.28;;;;;;;;;;10301780;28;20582;-69
2024/01/11 17:06:38;;;;;;;10.80;5.63;;;;;;;;;;10287865;28;20838;-70
2024/01/11 17:11:40;;;;;;;11.38;5.45;;;;;;;;;;10302758;28;20311;-70
2024/01/11 17:16:41;;;;;;;13.25;7.15;;;;;;;;;;10299253;28;20186;-69
2024/01/11 17:21:42;;;;;;;15.77;6.53;;;;;;;;;;10309042;28;20586;-69
2024/01/11 17:26:44;;;;;;;12.60;6.32;;;;;;;;;;10291297;28;20225;-70
2024/01/11 17:31:45;;;;;;;11.93;6.40;;;;;;;;;;10301804;28;20260;-69
2024/01/11 17:36:46;;;;;;;13.38;6.18;;;;;;;;;;10285818;28;20184;-69
2024/01/11 17:41:47;;;;;;;14.85;7.43;;;;;;;;;;10298706;28;20220;-70
2024/01/11 17:46:48;;;;;;;17.17;6.93;;;;;;;;;;10281757;28;20189;-70
2024/01/11 17:51:55;;;;;;;13.63;6.90;;;;;;;;;;10283784;28;20216;-71
2024/01/11 17:56:57;;;;;;;13.98;6.20;;;;;;;;;;10291542;28;20197;-69
2024/01/11 18:01:58;;;;;;;19.20;7.00;;;;;;;;;;10282683;28;20649;-70
2024/01/11 18:06:59;;;;;;;22.35;10.32;;;;;;;;;;10287534;28;20219;-70
2024/01/11 18:12:00;;;;;;;30.98;14.07;;;;;;;;;;10268864;28;20213;-70
2024/01/11 18:17:01;;;;;;;17.73;7.85;;;;;;;;;;10281919;28;20452;-70
2024/01/11 18:22:02;;;;;;;16.02;7.20;;;;;;;;;;10286194;28;20228;-70
2024/01/11 18:27:08;;;;;;;21.38;9.75;;;;;;;;;;10267151;28;20188;-69
2024/01/11 18:32:09;;;;;;;14.60;7.40;;;;;;;;;;10278523;28;20233;-70
2024/01/11 18:37:10;;;;;;;19.23;7.47;;;;;;;;;;10280656;28;20184;-69
2024/01/11 18:42:12;;;;;;;16.20;7.00;;;;;;;;;;10292150;28;20221;-70
2024/01/11 18:47:13;;;;;;;18.08;6.47;;;;;;;;;;10295697;28;20683;-70
2024/01/11 18:52:14;;;;;;;16.00;8.18;;;;;;;;;;10302884;28;20810;-70
2024/01/11 18:57:16;;;;;;;15.93;7.27;;;;;;;;;;10279068;28;20224;-70
2024/01/11 19:02:17;;;;;;;21.38;7.25;;;;;;;;;;10291715;28;20283;-70
2024/01/11 19:07:18;;;;;;;22.88;8.93;;;;;;;;;;10301780;28;21002;-70
2024/01/11 19:12:19;;;;;;;17.08;6.43;;;;;;;;;;10297898;28;20202;-70
2024/01/11 19:17:20;;;;;;;22.40;7.63;;;;;;;;;;10284920;28;20593;-69
2024/01/11 19:22:21;;;;;;;20.08;7.35;;;;;;;;;;10297986;28;20707;-70
2024/01/11 19:27:22;;;;;;;26.52;9.07;;;;;;;;;;10292413;28;20658;-70
2024/01/11 19:32:23;;;;;;;27.90;8.60;;;;;;;;;;10284318;28;20225;-70
2024/01/11 19:37:25;;;;;;;21.70;8.13;;;;;;;;;;10292730;28;20193;-70
2024/01/11 19:42:25;;;;;;;25.23;7.25;;;;;;;;;;10302245;28;20570;-70
2024/01/11 19:47:26;;;;;;;25.20;7.43;;;;;;;;;;10298771;28;20358;-70
2024/01/11 19:52:28;;;;;;;21.38;6.63;;;;;;;;;;10300104;28;20239;-70
2024/01/11 19:57:31;;;;;;;25.98;9.00;;;;;;;;;;10291987;28;20547;-70
2024/01/11 20:02:32;;;;;;;39.78;11.85;;;;;;;;;;10297791;28;20289;-70
2024/01/11 20:07:34;;;;;;;28.20;8.20;;;;;;;;;;10295650;28;20625;-70
2024/01/11 20:12:36;;;;;;;25.17;7.97;;;;;;;;;;10287215;28;20220;-70
2024/01/11 20:17:37;;;;;;;29.85;8.52;;;;;;;;;;10280611;28;20267;-70
2024/01/11 20:22:38;;;;;;;35.15;11.50;;;;;;;;;;10272975;28;21100;-70
2024/01/11 20:27:39;;;;;;;33.33;8.50;;;;;;;;;;10286770;28;20679;-70
2024/01/11 20:32:40;;;;;;;26.45;9.10;;;;;;;;;;10252359;28;20261;-70
2024/01/11 20:37:41;;;;;;;31.98;11.57;;;;;;;;;;10251857;28;20186;-70
2024/01/11 20:42:42;;;;;;;34.13;10.60;;;;;;;;;;10264398;28;20217;-70
2024/01/11 20:47:43;;;;;;;32.00;8.25;;;;;;;;;;10239170;28;20225;-70
2024/01/11 20:52:44;;;;;;;34.65;10.00;;;;;;;;;;10265518;28;20674;-70
2024/01/11 20:57:45;;;;;;;34.22;8.82;;;;;;;;;;10251465;28;20198;-70
2024/01/11 21:02:46;;;;;;;30.42;10.50;;;;;;;;;;10258115;28;20221;-70
2024/01/11 21:07:47;;;;;;;32.28;9.65;;;;;;;;;;10254229;28;20190;-70
2024/01/11 21:12:49;;;;;;;28.08;8.50;;;;;;;;;;10260260;28;20313;-69
2024/01/11 21:17:50;;;;;;;29.83;9.63;;;;;;;;;;10249402;28;20197;-70
2024/01/11 21:22:51;;;;;;;20.67;8.65;;;;;;;;;;10234125;28;20217;-69
2024/01/11 21:27:52;;;;;;;35.45;12.40;;;;;;;;;;10275833;28;20192;-70
2024/01/11 21:32:53;;;;;;;28.77;8.80;;;;;;;;;;10266697;28;20229;-70
2024/01/11 21:37:54;;;;;;;31.95;10.45;;;;;;;;;;10261224;28;20696;-70
2024/01/11 21:42:55;;;;;;;17.50;7.28;;;;;;;;;;10261408;28;20217;-69
2024/01/11 21:47:56;;;;;;;22.20;7.43;;;;;;;;;;10267214;28;20272;-70
2024/01/11 21:52:57;;;;;;;20.98;7.03;;;;;;;;;;10236234;28;20217;-70
2024/01/11 21:57:58;;;;;;;27.38;7.45;;;;;;;;;;10275455;28;20221;-70
2024/01/11 22:02:59;;;;;;;15.50;6.25;;;;;;;;;;10259891;28;20362;-69
2024/01/11 22:08:00;;;;;;;16.30;6.40;;;;;;;;;;10272070;28;20220;-70
2024/01/11 22:13:01;;;;;;;20.10;6.03;;;;;;;;;;10274450;28;20296;-70
2024/01/11 22:18:03;;;;;;;24.00;7.13;;;;;;;;;;10252958;28;20197;-70
2024/01/11 22:23:04;;;;;;;20.95;6.90;;;;;;;;;;10241783;28;20282;-70
2024/01/11 22:28:05;;;;;;;23.40;7.05;;;;;;;;;;10286011;28;20200;-70
2024/01/11 22:33:06;;;;;;;19.45;6.65;;;;;;;;;;10299726;28;20668;-69
2024/01/11 22:38:08;;;;;;;20.13;5.93;;;;;;;;;;10296623;28;20282;-69
2024/01/11 22:43:09;;;;;;;22.42;7.60;;;;;;;;;;10304353;28;20205;-69
2024/01/11 22:48:10;;;;;;;24.35;6.88;;;;;;;;;;10301430;28;20185;-70
2024/01/11 22:53:11;;;;;;;24.65;6.88;;;;;;;;;;10297468;28;20221;-70
2024/01/11 22:58:12;;;;;;;16.55;5.60;;;;;;;;;;10307368;28;20193;-70
2024/01/11 23:03:13;;;;;;;19.45;6.20;;;;;;;;;;10298120;28;20219;-70
2024/01/11 23:08:14;;;;;;;22.42;6.10;;;;;;;;;;10296851;28;20194;-69
2024/01/11 23:13:15;;;;;;;17.67;5.75;;;;;;;;;;10328251;28;20580;-69
2024/01/11 23:18:16;;;;;;;22.25;6.60;;;;;;;;;;10318263;28;20262;-70
2024/01/11 23:23:17;;;;;;;20.38;7.07;;;;;;;;;;10307644;28;20213;-70
2024/01/11 23:28:21;;;;;;;16.30;5.78;;;;;;;;;;10308314;28;20189;-70
2024/01/11 23:33:22;;;;;;;19.10;5.80;;;;;;;;;;10301528;28;20617;-69
2024/01/11 23:38:24;;;;;;;28.58;7.43;;;;;;;;;;10319057;28;20220;-69
2024/01/11 23:43:25;;;;;;;23.10;7.70;;;;;;;;;;10328487;28;20299;-70
2024/01/11 23:48:26;;;;;;;19.70;6.93;;;;;;;;;;10323567;28;20264;-70
2024/01/11 23:53:27;;;;;;;25.85;6.78;;;;;;;;;;10315203;28;20270;-70
2024/01/11 23:58:28;;;;;;;24.45;7.30;;;;;;;;;;10322635;28;20260;-69
